NCAR-RAP Real-Time Weather Data

Output produced by METARs form (23 February 2020  02:15 UTC)
found at http://weather.rap.ucar.edu/surface/
 
KDEN 230153Z 17011KT 10SM OVC180 03/M02 A2998 RMK AO2 SLP154 T00331022